Time;durP1;ratioP1;P1;durP2;ratioP2;P2;SDS_P1;SDS_P2;PMS_P1;PMS_P2;Temp;Humidity;BMP_temperature;BMP_pressure;BME280_temperature;BME280_humidity;BME280_pressure;Samples;Min_cycle;Max_cycle;Signal;HPM_P1;HPM_P2
2021/07/26 00:01:49;;;;;;;;;;;18.40;99.90;;;;;;5061737;28;19938;-70
2021/07/26 00:04:15;;;;;;;;;;;18.40;99.90;;;;;;5066495;28;20284;-70
2021/07/26 00:06:40;;;;;;;;;;;18.40;99.90;;;;;;5067197;28;19920;-71
2021/07/26 00:09:06;;;;;;;;;;;18.40;99.90;;;;;;5070799;28;20347;-71
2021/07/26 00:11:31;;;;;;;;;;;18.40;99.90;;;;;;5072926;28;19913;-70
2021/07/26 00:13:57;;;;;;;;;;;18.40;99.90;;;;;;5071057;28;19920;-70
2021/07/26 00:16:22;;;;;;;;;;;18.40;99.90;;;;;;5072346;28;19919;-70
2021/07/26 00:18:48;;;;;;;;;;;18.30;99.90;;;;;;5058153;28;19924;-70
2021/07/26 00:21:13;;;;;;;;;;;18.30;99.90;;;;;;5066928;28;19919;-71
2021/07/26 00:23:39;;;;;;;;;;;18.30;99.90;;;;;;5054577;28;19919;-71
2021/07/26 00:26:05;;;;;;;;;;;18.30;99.90;;;;;;5059217;28;20372;-70
2021/07/26 00:28:30;;;;;;;;;;;18.30;99.90;;;;;;5060587;28;19920;-70
2021/07/26 00:30:56;;;;;;;;;;;18.30;99.90;;;;;;5058709;28;20003;-71
2021/07/26 00:34:22;;;;;;;;;;;18.20;99.90;;;;;;5068720;28;19916;-71
2021/07/26 00:36:29;;;;;;;;;;;18.20;99.90;;;;;;5060411;28;20320;-70
2021/07/26 00:38:54;;;;;;;;;;;18.20;99.90;;;;;;5057282;28;19920;-70
2021/07/26 00:41:22;;;;;;;;;;;18.20;99.90;;;;;;5068567;28;20403;-70
2021/07/26 00:43:48;;;;;;;;;;;18.20;99.90;;;;;;5059078;28;19916;-71
2021/07/26 00:46:13;;;;;;;;;;;18.20;99.90;;;;;;5072542;28;20265;-70
2021/07/26 00:48:39;;;;;;;;;;;18.20;99.90;;;;;;5057035;28;19971;-70
2021/07/26 00:51:05;;;;;;;;;;;18.10;99.90;;;;;;5073301;28;19912;-71
2021/07/26 00:53:31;;;;;;;;;;;18.10;99.90;;;;;;5072705;28;19917;-71
2021/07/26 00:55:57;;;;;;;;;;;18.10;99.90;;;;;;5065835;28;19920;-70
2021/07/26 00:58:22;;;;;;;;;;;18.10;99.90;;;;;;5057509;28;19944;-71
2021/07/26 01:00:48;;;;;;;;;;;18.10;99.90;;;;;;5055393;28;19913;-70
2021/07/26 01:03:13;;;;;;;;;;;18.10;99.90;;;;;;5061406;28;19999;-70
2021/07/26 01:05:39;;;;;;;;;;;18.10;99.90;;;;;;5060160;28;19913;-70
2021/07/26 01:08:04;;;;;;;;;;;18.10;99.90;;;;;;5069363;28;19920;-70
2021/07/26 01:10:30;;;;;;;;;;;18.10;99.90;;;;;;5063296;28;19922;-70
2021/07/26 01:12:55;;;;;;;;;;;18.10;99.90;;;;;;5064154;28;19917;-70
2021/07/26 01:15:21;;;;;;;;;;;18.10;99.90;;;;;;5072640;28;19916;-70
2021/07/26 01:18:16;;;;;;;;;;;18.10;99.90;;;;;;5063898;28;19968;-70
2021/07/26 01:20:41;;;;;;;;;;;18.00;99.90;;;;;;5054315;28;19960;-70
2021/07/26 01:23:07;;;;;;;;;;;18.00;99.90;;;;;;5072564;28;19923;-70
2021/07/26 01:25:36;;;;;;;;;;;18.00;99.90;;;;;;5060683;28;19927;-71
2021/07/26 01:28:01;;;;;;;;;;;18.00;99.90;;;;;;5059257;28;19939;-70
2021/07/26 01:30:27;;;;;;;;;;;18.00;99.90;;;;;;5063077;28;19916;-70
2021/07/26 01:32:52;;;;;;;;;;;18.00;99.90;;;;;;5068136;28;19923;-70
2021/07/26 01:35:18;;;;;;;;;;;18.00;99.90;;;;;;5068346;28;19943;-71
2021/07/26 01:37:44;;;;;;;;;;;18.00;99.90;;;;;;5065267;28;20003;-70
2021/07/26 01:40:09;;;;;;;;;;;18.00;99.90;;;;;;5078995;28;19966;-70
2021/07/26 01:42:44;;;;;;;;;;;17.90;99.90;;;;;;5080225;28;20304;-71
2021/07/26 01:45:10;;;;;;;;;;;17.90;99.90;;;;;;5069756;28;19952;-71
2021/07/26 01:47:48;;;;;;;;;;;18.00;99.90;;;;;;5080096;28;19912;-70
2021/07/26 01:50:18;;;;;;;;;;;17.90;99.90;;;;;;5065774;28;19958;-71
2021/07/26 01:52:43;;;;;;;;;;;18.00;99.90;;;;;;5065798;28;19996;-70
2021/07/26 01:55:10;;;;;;;;;;;18.00;99.90;;;;;;5076803;28;19977;-71
2021/07/26 01:57:35;;;;;;;;;;;17.90;99.90;;;;;;5079279;28;19912;-70
2021/07/26 02:00:01;;;;;;;;;;;17.90;99.90;;;;;;5079490;28;20011;-71
2021/07/26 02:02:28;;;;;;;;;;;17.90;99.90;;;;;;5065167;28;20126;-71
2021/07/26 02:04:53;;;;;;;;;;;17.80;99.90;;;;;;5073373;28;19913;-71
2021/07/26 02:07:19;;;;;;;;;;;17.80;99.90;;;;;;5070617;28;19912;-72
2021/07/26 02:09:44;;;;;;;;;;;17.80;99.90;;;;;;5077232;28;20016;-71
2021/07/26 02:12:10;;;;;;;;;;;17.80;99.90;;;;;;5078413;28;19912;-71
2021/07/26 02:14:35;;;;;;;;;;;17.80;99.90;;;;;;5076305;28;19912;-70
2021/07/26 02:17:01;;;;;;;;;;;17.80;99.90;;;;;;5072796;28;19917;-71
2021/07/26 02:19:26;;;;;;;;;;;17.80;99.90;;;;;;5061240;28;19924;-71
2021/07/26 02:21:52;;;;;;;;;;;17.80;99.90;;;;;;5070909;28;19920;-70
2021/07/26 02:24:18;;;;;;;;;;;17.70;99.90;;;;;;5076541;28;19924;-71
2021/07/26 02:26:43;;;;;;;;;;;17.70;99.90;;;;;;5059804;28;19999;-71
2021/07/26 02:29:09;;;;;;;;;;;17.70;99.90;;;;;;5076629;28;19920;-70
2021/07/26 02:31:34;;;;;;;;;;;17.80;99.90;;;;;;5075160;28;20018;-70
2021/07/26 02:34:00;;;;;;;;;;;17.70;99.90;;;;;;5068008;28;19971;-70
2021/07/26 02:36:25;;;;;;;;;;;17.70;99.90;;;;;;5059355;28;19967;-70
2021/07/26 02:38:51;;;;;;;;;;;17.70;99.90;;;;;;5060432;28;19912;-70
2021/07/26 02:41:16;;;;;;;;;;;17.70;99.90;;;;;;5070019;28;20075;-70
2021/07/26 02:46:26;;;;;;;;;;;17.70;99.90;;;;;;5056041;28;20280;-70
2021/07/26 02:48:52;;;;;;;;;;;17.70;99.90;;;;;;5074151;28;20003;-70
2021/07/26 02:51:17;;;;;;;;;;;17.80;99.90;;;;;;5074401;28;20319;-70
2021/07/26 02:53:43;;;;;;;;;;;17.80;99.90;;;;;;5073818;28;19916;-70
2021/07/26 02:56:09;;;;;;;;;;;17.80;99.90;;;;;;5075541;28;19965;-70
2021/07/26 02:58:35;;;;;;;;;;;17.80;99.90;;;;;;5075087;28;19912;-70
2021/07/26 03:01:00;;;;;;;;;;;17.80;99.90;;;;;;5061669;28;20419;-70
2021/07/26 03:03:26;;;;;;;;;;;17.80;99.90;;;;;;5071422;28;20356;-70
2021/07/26 03:05:51;;;;;;;;;;;17.80;99.90;;;;;;5058065;28;19916;-70
2021/07/26 03:08:16;;;;;;;;;;;17.90;99.90;;;;;;5059523;28;20300;-70
2021/07/26 03:10:42;;;;;;;;;;;17.90;99.90;;;;;;5058073;28;19978;-70
2021/07/26 03:13:07;;;;;;;;;;;17.90;99.90;;;;;;5058306;28;19916;-70
2021/07/26 03:15:36;;;;;;;;;;;17.90;99.90;;;;;;5073709;28;19928;-70
2021/07/26 03:18:02;;;;;;;;;;;18.00;99.90;;;;;;5068708;28;20296;-70
2021/07/26 03:20:27;;;;;;;;;;;18.00;99.90;;;;;;5054916;28;19917;-70
2021/07/26 03:22:59;;;;;;;;;;;18.00;99.90;;;;;;5074299;28;20368;-70
2021/07/26 03:25:25;;;;;;;;;;;18.10;99.90;;;;;;5073638;28;20280;-70
2021/07/26 03:28:09;;;;;;;;;;;18.10;99.90;;;;;;5073397;28;19917;-70
2021/07/26 03:30:35;;;;;;;;;;;18.10;99.90;;;;;;5073388;28;19913;-70
2021/07/26 03:33:00;;;;;;;;;;;18.10;99.90;;;;;;5060497;28;19942;-70
2021/07/26 03:35:26;;;;;;;;;;;18.10;99.90;;;;;;5059916;28;20377;-70
2021/07/26 03:37:52;;;;;;;;;;;18.20;99.90;;;;;;5069119;28;19919;-69
2021/07/26 03:40:19;;;;;;;;;;;18.20;99.90;;;;;;5060137;28;20011;-70
2021/07/26 03:42:45;;;;;;;;;;;18.10;99.90;;;;;;5066911;28;19981;-70
2021/07/26 03:45:12;;;;;;;;;;;18.10;99.90;;;;;;5071491;28;19934;-70
2021/07/26 03:47:38;;;;;;;;;;;18.10;99.90;;;;;;5074228;28;19973;-70
2021/07/26 03:50:04;;;;;;;;;;;18.00;99.90;;;;;;5061325;28;19913;-70
2021/07/26 03:52:30;;;;;;;;;;;18.00;99.90;;;;;;5072390;28;19923;-70
2021/07/26 03:54:56;;;;;;;;;;;18.00;99.90;;;;;;5072921;28;19982;-70
2021/07/26 03:57:22;;;;;;;;;;;18.00;99.90;;;;;;5074265;28;20380;-70
2021/07/26 03:59:47;;;;;;;;;;;18.00;99.90;;;;;;5072800;28;19964;-70
2021/07/26 04:02:13;;;;;;;;;;;18.00;99.90;;;;;;5072164;28;19912;-70
2021/07/26 04:04:38;;;;;;;;;;;18.10;99.90;;;;;;5072411;28;19912;-70
2021/07/26 04:07:09;;;;;;;;;;;18.20;99.90;;;;;;5053918;28;19936;-70
2021/07/26 04:09:40;;;;;;;;;;;18.10;99.90;;;;;;5055859;28;20007;-70
2021/07/26 04:12:08;;;;;;;;;;;18.00;99.90;;;;;;5052719;28;19915;-70
2021/07/26 04:14:40;;;;;;;;;;;18.00;99.90;;;;;;5072180;28;20448;-70
2021/07/26 04:17:05;;;;;;;;;;;18.00;99.90;;;;;;5070016;28;19912;-70
2021/07/26 04:19:31;;;;;;;;;;;18.00;99.90;;;;;;5062485;28;19924;-70
2021/07/26 04:21:57;;;;;;;;;;;18.00;99.90;;;;;;5062423;28;19959;-70
2021/07/26 04:24:23;;;;;;;;;;;18.00;99.90;;;;;;5070405;28;19956;-70
2021/07/26 04:26:49;;;;;;;;;;;18.00;99.90;;;;;;5069691;28;19919;-70
2021/07/26 04:29:15;;;;;;;;;;;18.00;99.90;;;;;;5058252;28;19912;-70
2021/07/26 04:31:41;;;;;;;;;;;18.00;99.90;;;;;;5059444;28;19913;-70
2021/07/26 04:34:06;;;;;;;;;;;18.00;99.90;;;;;;5062393;28;19931;-70
2021/07/26 04:36:32;;;;;;;;;;;18.00;99.90;;;;;;5070134;28;20003;-70
2021/07/26 04:38:57;;;;;;;;;;;18.00;99.90;;;;;;5070623;28;20417;-70
2021/07/26 04:41:23;;;;;;;;;;;18.00;99.90;;;;;;5062148;28;19913;-70
2021/07/26 04:43:48;;;;;;;;;;;18.10;99.90;;;;;;5054182;28;19920;-70
2021/07/26 04:46:14;;;;;;;;;;;18.10;99.90;;;;;;5062927;28;20005;-70
2021/07/26 04:48:39;;;;;;;;;;;18.10;99.90;;;;;;5069984;28;19913;-70
2021/07/26 04:51:05;;;;;;;;;;;18.10;99.90;;;;;;5053595;28;19908;-70
2021/07/26 04:53:32;;;;;;;;;;;18.20;99.90;;;;;;5059624;28;20002;-70
2021/07/26 04:55:57;;;;;;;;;;;18.20;99.90;;;;;;5072803;28;19969;-70
2021/07/26 04:58:22;;;;;;;;;;;18.20;99.90;;;;;;5070998;28;20332;-70
2021/07/26 05:00:48;;;;;;;;;;;18.20;99.90;;;;;;5068098;28;20269;-70
2021/07/26 05:03:13;;;;;;;;;;;18.20;99.90;;;;;;5075855;28;19912;-70
2021/07/26 05:05:39;;;;;;;;;;;18.30;99.90;;;;;;5062498;28;19967;-70
2021/07/26 05:08:04;;;;;;;;;;;18.40;99.90;;;;;;5076644;28;20261;-70
2021/07/26 05:10:30;;;;;;;;;;;18.40;99.90;;;;;;5059607;28;19959;-70
2021/07/26 05:12:55;;;;;;;;;;;18.40;99.90;;;;;;5062478;28;20340;-70
2021/07/26 05:15:21;;;;;;;;;;;18.50;99.90;;;;;;5057889;28;19969;-70
2021/07/26 05:17:46;;;;;;;;;;;18.50;99.90;;;;;;5067224;28;19957;-70
2021/07/26 05:20:12;;;;;;;;;;;18.50;99.90;;;;;;5075827;28;19920;-70
2021/07/26 05:22:39;;;;;;;;;;;18.60;99.90;;;;;;5067569;28;19951;-71
2021/07/26 05:25:07;;;;;;;;;;;18.60;99.90;;;;;;5069327;28;19966;-71
2021/07/26 05:27:33;;;;;;;;;;;18.60;99.90;;;;;;5075099;28;19963;-70
2021/07/26 05:29:58;;;;;;;;;;;18.70;99.90;;;;;;5066814;28;19919;-70
2021/07/26 05:32:24;;;;;;;;;;;18.70;99.90;;;;;;5073645;28;20383;-70
2021/07/26 05:34:49;;;;;;;;;;;18.80;99.90;;;;;;5069714;28;19912;-70
2021/07/26 05:37:16;;;;;;;;;;;18.80;99.90;;;;;;5073265;28;20009;-70
2021/07/26 05:39:41;;;;;;;;;;;19.00;99.90;;;;;;5059073;28;19912;-70
2021/07/26 05:42:10;;;;;;;;;;;19.00;99.90;;;;;;5056893;28;19913;-70
2021/07/26 05:44:39;;;;;;;;;;;19.10;99.90;;;;;;5068257;28;19919;-70
2021/07/26 05:47:05;;;;;;;;;;;19.20;99.90;;;;;;5062483;28;19913;-70
2021/07/26 05:49:30;;;;;;;;;;;19.40;99.90;;;;;;5061846;28;20352;-70
2021/07/26 05:51:56;;;;;;;;;;;19.80;99.90;;;;;;5066250;28;20007;-70
2021/07/26 05:54:21;;;;;;;;;;;20.10;99.90;;;;;;5059627;28;19986;-70
2021/07/26 05:56:48;;;;;;;;;;;20.20;99.90;;;;;;5070226;28;19916;-70
2021/07/26 05:59:16;;;;;;;;;;;20.10;99.90;;;;;;5059576;28;19966;-70
2021/07/26 06:01:48;;;;;;;;;;;20.10;99.90;;;;;;5070597;28;19913;-69
2021/07/26 06:04:17;;;;;;;;;;;20.10;99.90;;;;;;5068874;28;20295;-70
2021/07/26 06:06:44;;;;;;;;;;;20.10;99.90;;;;;;5068609;28;19961;-70
2021/07/26 06:09:10;;;;;;;;;;;20.10;99.90;;;;;;5063187;28;19913;-70
2021/07/26 06:11:36;;;;;;;;;;;20.20;99.90;;;;;;5071839;28;19913;-70
2021/07/26 06:14:02;;;;;;;;;;;20.30;99.90;;;;;;5069569;28;19972;-71
2021/07/26 06:16:27;;;;;;;;;;;20.60;99.90;;;;;;5075148;28;19985;-70
2021/07/26 06:18:52;;;;;;;;;;;20.80;99.90;;;;;;5064017;28;19927;-69
2021/07/26 06:21:18;;;;;;;;;;;20.80;99.90;;;;;;5068044;28;20003;-70
2021/07/26 06:23:43;;;;;;;;;;;20.70;99.90;;;;;;5059593;28;19920;-70
2021/07/26 06:26:09;;;;;;;;;;;20.90;99.90;;;;;;5069735;28;19974;-70
2021/07/26 06:28:35;;;;;;;;;;;22.10;99.90;;;;;;5073397;28;19996;-70
2021/07/26 06:31:03;;;;;;;;;;;23.90;99.90;;;;;;5070610;28;19962;-71
2021/07/26 06:33:28;;;;;;;;;;;25.00;99.90;;;;;;5061028;28;19970;-71
2021/07/26 06:35:54;;;;;;;;;;;25.20;99.90;;;;;;5071106;28;20311;-72
2021/07/26 06:38:19;;;;;;;;;;;25.70;99.90;;;;;;5065158;28;19919;-70
2021/07/26 06:40:45;;;;;;;;;;;26.30;99.90;;;;;;5073046;28;19913;-72
2021/07/26 06:43:11;;;;;;;;;;;26.50;99.90;;;;;;5071978;28;19918;-72
2021/07/26 06:45:36;;;;;;;;;;;26.80;99.90;;;;;;5055759;28;20420;-72
2021/07/26 06:48:02;;;;;;;;;;;27.30;99.90;;;;;;5054594;28;19912;-72
2021/07/26 06:50:27;;;;;;;;;;;27.60;99.90;;;;;;5072514;28;20038;-71
2021/07/26 06:52:52;;;;;;;;;;;27.40;99.90;;;;;;5073531;28;19961;-71
2021/07/26 06:55:18;;;;;;;;;;;26.50;99.90;;;;;;5066129;28;20393;-71
2021/07/26 06:57:43;;;;;;;;;;;25.60;99.90;;;;;;5073328;28;19912;-71
2021/07/26 07:00:10;;;;;;;;;;;24.70;99.90;;;;;;5073975;28;19909;-71
2021/07/26 07:02:35;;;;;;;;;;;23.90;99.90;;;;;;5063519;28;20359;-71
2021/07/26 07:05:01;;;;;;;;;;;23.30;99.90;;;;;;5065388;28;19951;-71
2021/07/26 07:07:27;;;;;;;;;;;23.00;99.90;;;;;;5055234;28;20000;-71
2021/07/26 07:09:53;;;;;;;;;;;22.70;99.90;;;;;;5070991;28;19958;-71
2021/07/26 07:12:18;;;;;;;;;;;22.40;99.90;;;;;;5074364;28;20360;-70
2021/07/26 07:14:44;;;;;;;;;;;22.10;99.90;;;;;;5071723;28;19920;-70
2021/07/26 07:17:09;;;;;;;;;;;21.90;99.90;;;;;;5066271;28;19926;-71
2021/07/26 07:19:38;;;;;;;;;;;21.80;99.90;;;;;;5060057;28;19950;-71
2021/07/26 07:22:03;;;;;;;;;;;21.70;99.90;;;;;;5063094;28;19912;-71
2021/07/26 07:24:29;;;;;;;;;;;21.60;99.90;;;;;;5073155;28;19944;-70
2021/07/26 07:26:54;;;;;;;;;;;21.50;99.90;;;;;;5068024;28;20347;-71
2021/07/26 07:29:20;;;;;;;;;;;21.40;99.90;;;;;;5054959;28;19913;-70
2021/07/26 07:31:45;;;;;;;;;;;21.30;99.90;;;;;;5055024;28;19963;-71
2021/07/26 07:34:12;;;;;;;;;;;21.20;99.90;;;;;;5054619;28;19931;-71
2021/07/26 07:36:38;;;;;;;;;;;21.10;99.90;;;;;;5056325;28;19912;-72
2021/07/26 07:39:03;;;;;;;;;;;21.00;99.90;;;;;;5074577;28;19986;-71
2021/07/26 07:41:29;;;;;;;;;;;21.00;99.90;;;;;;5073610;28;19912;-71
2021/07/26 07:43:54;;;;;;;;;;;20.90;99.90;;;;;;5074716;28;19913;-71
2021/07/26 07:46:20;;;;;;;;;;;20.90;99.90;;;;;;5067812;28;19913;-72
2021/07/26 07:48:46;;;;;;;;;;;21.00;99.90;;;;;;5072657;28;20283;-71
2021/07/26 07:51:12;;;;;;;;;;;21.10;99.90;;;;;;5067799;28;19912;-71
2021/07/26 07:53:38;;;;;;;;;;;21.20;99.90;;;;;;5061884;28;19912;-71
2021/07/26 07:56:04;;;;;;;;;;;21.30;99.90;;;;;;5059104;28;19912;-71
2021/07/26 07:58:29;;;;;;;;;;;21.40;99.90;;;;;;5070064;28;19919;-71
2021/07/26 08:00:58;;;;;;;;;;;21.50;99.90;;;;;;5074171;28;19909;-71
2021/07/26 08:03:25;;;;;;;;;;;21.70;99.90;;;;;;5073531;28;20284;-71
2021/07/26 08:05:51;;;;;;;;;;;21.80;99.90;;;;;;5072108;28;19920;-71
2021/07/26 08:08:17;;;;;;;;;;;21.80;99.90;;;;;;5068737;28;20369;-71
2021/07/26 08:10:43;;;;;;;;;;;21.80;99.90;;;;;;5055752;28;19912;-71
2021/07/26 08:13:08;;;;;;;;;;;21.80;99.90;;;;;;5053933;28;20373;-70
2021/07/26 08:15:33;;;;;;;;;;;21.80;99.90;;;;;;5052914;28;19913;-74
2021/07/26 08:17:59;;;;;;;;;;;21.70;99.90;;;;;;5063408;28;19997;-70
2021/07/26 08:20:24;;;;;;;;;;;21.80;99.90;;;;;;5071361;28;19913;-70
2021/07/26 08:22:50;;;;;;;;;;;21.70;99.90;;;;;;5065935;28;19939;-70
2021/07/26 08:25:16;;;;;;;;;;;21.80;99.90;;;;;;5073832;28;20406;-69
2021/07/26 08:27:47;;;;;;;;;;;21.70;99.90;;;;;;5069833;28;19913;-70
2021/07/26 08:30:13;;;;;;;;;;;21.70;99.90;;;;;;5073099;28;20470;-69
2021/07/26 08:32:38;;;;;;;;;;;21.60;99.90;;;;;;5070324;28;19920;-70
2021/07/26 08:35:04;;;;;;;;;;;21.60;99.90;;;;;;5066098;28;19967;-69
2021/07/26 08:37:30;;;;;;;;;;;21.60;99.90;;;;;;5072143;28;19909;-69
2021/07/26 08:40:00;;;;;;;;;;;21.70;99.90;;;;;;5058651;28;19913;-70
2021/07/26 08:42:26;;;;;;;;;;;21.80;99.90;;;;;;5062708;28;20361;-70
2021/07/26 08:44:51;;;;;;;;;;;22.00;99.90;;;;;;5054525;28;19920;-70
2021/07/26 08:47:17;;;;;;;;;;;22.20;99.90;;;;;;5052794;28;19913;-70
2021/07/26 08:49:43;;;;;;;;;;;22.10;99.90;;;;;;5071922;28;20006;-70
2021/07/26 08:52:08;;;;;;;;;;;22.20;99.90;;;;;;5070502;28;19940;-70
2021/07/26 08:54:35;;;;;;;;;;;22.40;99.90;;;;;;5055809;28;19921;-70
2021/07/26 08:57:01;;;;;;;;;;;22.60;99.90;;;;;;5055534;28;19909;-70
2021/07/26 08:59:26;;;;;;;;;;;22.50;99.90;;;;;;5072222;28;19952;-70
2021/07/26 09:01:53;;;;;;;;;;;22.50;99.90;;;;;;5072863;28;19916;-70
2021/07/26 09:04:19;;;;;;;;;;;22.20;99.90;;;;;;5064967;28;19959;-70
2021/07/26 09:06:44;;;;;;;;;;;22.10;99.90;;;;;;5052204;28;20354;-70
2021/07/26 09:09:10;;;;;;;;;;;22.00;99.90;;;;;;5053387;28;19984;-70
2021/07/26 09:11:42;;;;;;;;;;;22.10;99.90;;;;;;5053336;28;19909;-70
2021/07/26 09:14:08;;;;;;;;;;;22.20;99.90;;;;;;5061067;28;20384;-70
2021/07/26 09:16:33;;;;;;;;;;;22.40;99.90;;;;;;5053333;28;19909;-70
2021/07/26 09:19:03;;;;;;;;;;;22.50;99.90;;;;;;5053107;28;20289;-70
2021/07/26 09:21:48;;;;;;;;;;;22.70;99.90;;;;;;5053226;28;19932;-69
2021/07/26 09:24:14;;;;;;;;;;;22.90;99.90;;;;;;5071969;28;19909;-70
2021/07/26 09:26:39;;;;;;;;;;;22.90;99.90;;;;;;5070979;28;20276;-71
2021/07/26 09:29:23;;;;;;;;;;;22.90;99.90;;;;;;5072169;28;19908;-70
2021/07/26 09:31:59;;;;;;;;;;;22.70;99.90;;;;;;5072159;28;19913;-70
2021/07/26 09:34:24;;;;;;;;;;;22.80;99.90;;;;;;5068542;28;19916;-70
2021/07/26 09:36:50;;;;;;;;;;;22.90;99.90;;;;;;5058064;28;19962;-70
2021/07/26 09:39:26;;;;;;;;;;;22.80;99.90;;;;;;5065092;28;20310;-71
2021/07/26 09:41:53;;;;;;;;;;;22.80;99.90;;;;;;5066296;28;19999;-71
2021/07/26 09:44:26;;;;;;;;;;;23.00;99.90;;;;;;5061623;28;19913;-70
2021/07/26 09:46:53;;;;;;;;;;;23.30;99.90;;;;;;5072880;28;19913;-71
2021/07/26 09:49:19;;;;;;;;;;;23.40;99.90;;;;;;5076633;28;19961;-71
2021/07/26 09:52:03;;;;;;;;;;;23.30;99.90;;;;;;5074862;28;19965;-71
2021/07/26 09:54:59;;;;;;;;;;;23.60;99.90;;;;;;5062846;28;19916;-70
2021/07/26 09:57:24;;;;;;;;;;;23.90;99.90;;;;;;5050970;28;19919;-71
2021/07/26 09:59:50;;;;;;;;;;;24.20;99.90;;;;;;5061739;28;19995;-70
2021/07/26 10:02:20;;;;;;;;;;;24.20;99.90;;;;;;5058728;28;19913;-71
2021/07/26 10:04:46;;;;;;;;;;;24.00;99.90;;;;;;5076232;28;19908;-71
2021/07/26 10:07:12;;;;;;;;;;;23.80;99.90;;;;;;5056933;28;19913;-70
2021/07/26 10:09:41;;;;;;;;;;;23.60;99.90;;;;;;5070088;28;20253;-71
2021/07/26 10:12:11;;;;;;;;;;;23.60;99.90;;;;;;5073652;28;19939;-69
2021/07/26 10:14:45;;;;;;;;;;;23.90;99.90;;;;;;5074495;28;20257;-71
2021/07/26 10:17:10;;;;;;;;;;;24.00;99.90;;;;;;5075535;28;19915;-71
2021/07/26 10:19:36;;;;;;;;;;;24.10;99.90;;;;;;5070164;28;19921;-70
2021/07/26 10:22:03;;;;;;;;;;;24.30;99.90;;;;;;5070744;28;19912;-71
2021/07/26 10:24:43;;;;;;;;;;;24.20;99.90;;;;;;5067596;28;19955;-71
2021/07/26 10:27:13;;;;;;;;;;;24.10;99.90;;;;;;5067325;28;19912;-71
2021/07/26 10:29:52;;;;;;;;;;;23.90;99.90;;;;;;5072245;28;20003;-71
2021/07/26 10:32:26;;;;;;;;;;;24.20;99.90;;;;;;5067775;28;19919;-71
2021/07/26 10:34:52;;;;;;;;;;;25.10;99.90;;;;;;5075491;28;19938;-71
2021/07/26 10:37:37;;;;;;;;;;;25.80;99.90;;;;;;5075559;28;19912;-71
2021/07/26 10:40:22;;;;;;;;;;;26.40;99.90;;;;;;5069046;28;19958;-71
2021/07/26 10:43:07;;;;;;;;;;;26.80;99.90;;;;;;5071316;28;19913;-71
2021/07/26 10:45:35;;;;;;;;;;;27.10;99.90;;;;;;5074185;28;19919;-71
2021/07/26 10:48:30;;;;;;;;;;;27.30;99.90;;;;;;5070066;28;19917;-71
2021/07/26 10:50:57;;;;;;;;;;;27.40;99.90;;;;;;5081131;28;19920;-69
2021/07/26 10:53:34;;;;;;;;;;;27.70;99.90;;;;;;5070298;28;19932;-71
2021/07/26 10:56:03;;;;;;;;;;;27.70;99.90;;;;;;5062439;28;20021;-71
2021/07/26 10:58:37;;;;;;;;;;;27.50;99.90;;;;;;5070785;28;19928;-71
2021/07/26 11:01:25;;;;;;;;;;;27.00;99.90;;;;;;5071063;28;20371;-72
2021/07/26 11:03:51;;;;;;;;;;;26.40;99.90;;;;;;5065144;28;19920;-71
2021/07/26 11:06:38;;;;;;;;;;;25.90;99.90;;;;;;5066228;28;19995;-72
2021/07/26 11:09:24;;;;;;;;;;;25.70;99.90;;;;;;5065202;28;20309;-71
2021/07/26 11:11:51;;;;;;;;;;;25.90;99.90;;;;;;5060203;28;20083;-71
2021/07/26 11:14:17;;;;;;;;;;;25.80;99.90;;;;;;5067680;28;19920;-71
2021/07/26 11:16:48;;;;;;;;;;;25.50;99.90;;;;;;5067387;28;19919;-72
2021/07/26 11:19:29;;;;;;;;;;;25.30;99.90;;;;;;5072570;28;19966;-71
2021/07/26 11:21:55;;;;;;;;;;;25.10;99.90;;;;;;5073229;28;19919;-71
2021/07/26 11:24:38;;;;;;;;;;;24.70;99.90;;;;;;5066606;28;20351;-71
2021/07/26 11:27:04;;;;;;;;;;;24.50;99.90;;;;;;5069644;28;19919;-71
2021/07/26 11:29:30;;;;;;;;;;;24.40;99.90;;;;;;5066431;28;19920;-72
2021/07/26 11:31:59;;;;;;;;;;;24.30;99.90;;;;;;5064801;28;19917;-71
2021/07/26 11:34:28;;;;;;;;;;;24.20;99.90;;;;;;5081793;28;19916;-71
2021/07/26 11:37:13;;;;;;;;;;;24.20;99.90;;;;;;5059353;28;19965;-71
2021/07/26 11:39:48;;;;;;;;;;;24.40;99.90;;;;;;5058996;28;20434;-71
2021/07/26 11:42:16;;;;;;;;;;;24.40;99.90;;;;;;5055404;28;19934;-72
2021/07/26 11:44:42;;;;;;;;;;;24.40;99.90;;;;;;5063031;28;19913;-71
2021/07/26 11:47:08;;;;;;;;;;;24.10;99.90;;;;;;5064894;28;20349;-71
2021/07/26 11:49:33;;;;;;;;;;;24.00;99.90;;;;;;5065554;28;19912;-71
2021/07/26 11:52:08;;;;;;;;;;;23.90;99.90;;;;;;5060720;28;19918;-70
2021/07/26 11:54:34;;;;;;;;;;;24.00;99.90;;;;;;5066620;28;19924;-71
2021/07/26 11:57:04;;;;;;;;;;;24.00;99.90;;;;;;5068634;28;19920;-71
2021/07/26 11:59:30;;;;;;;;;;;24.10;99.90;;;;;;5069511;28;19913;-72
2021/07/26 12:01:57;;;;;;;;;;;24.30;99.90;;;;;;5067818;28;19918;-71
2021/07/26 12:04:26;;;;;;;;;;;24.70;99.90;;;;;;5066471;28;19920;-71
2021/07/26 12:06:53;;;;;;;;;;;25.10;99.90;;;;;;5068595;28;19919;-72
2021/07/26 12:09:19;;;;;;;;;;;25.40;99.90;;;;;;5060434;28;20379;-73
2021/07/26 12:11:45;;;;;;;;;;;25.50;99.90;;;;;;5059189;28;19928;-72
2021/07/26 12:14:26;;;;;;;;;;;25.60;99.90;;;;;;5066227;28;20315;-72
2021/07/26 12:17:03;;;;;;;;;;;25.60;99.90;;;;;;5072855;28;20344;-72
2021/07/26 12:19:28;;;;;;;;;;;25.60;99.90;;;;;;5072477;28;20037;-73
2021/07/26 12:21:55;;;;;;;;;;;25.50;99.90;;;;;;5073936;28;19912;-72
2021/07/26 12:24:39;;;;;;;;;;;25.40;99.90;;;;;;5064018;28;20034;-73
2021/07/26 12:27:05;;;;;;;;;;;25.40;99.90;;;;;;5055006;28;19920;-71
2021/07/26 12:29:30;;;;;;;;;;;25.40;99.90;;;;;;5056401;28;20010;-72
2021/07/26 12:32:03;;;;;;;;;;;25.50;99.90;;;;;;5056516;28;19924;-72
2021/07/26 12:34:28;;;;;;;;;;;25.60;99.90;;;;;;5056356;28;19924;-73
2021/07/26 12:36:57;;;;;;;;;;;25.70;99.90;;;;;;5057804;28;19918;-72
2021/07/26 12:39:38;;;;;;;;;;;25.60;99.90;;;;;;5064719;28;20261;-71
2021/07/26 12:42:20;;;;;;;;;;;25.50;99.90;;;;;;5062435;28;19912;-73
2021/07/26 12:44:45;;;;;;;;;;;25.50;99.90;;;;;;5063522;28;19920;-72
2021/07/26 12:47:33;;;;;;;;;;;25.60;99.90;;;;;;5065148;28;19912;-72
2021/07/26 12:49:59;;;;;;;;;;;25.80;99.90;;;;;;5069487;28;20276;-73
2021/07/26 12:52:24;;;;;;;;;;;25.90;99.90;;;;;;5068171;28;19916;-72
2021/07/26 12:54:50;;;;;;;;;;;25.90;99.90;;;;;;5069725;28;20351;-72
2021/07/26 12:57:16;;;;;;;;;;;25.90;99.90;;;;;;5075626;28;19963;-71
2021/07/26 12:59:41;;;;;;;;;;;25.90;99.90;;;;;;5074357;28;20284;-72
2021/07/26 13:02:07;;;;;;;;;;;25.80;99.90;;;;;;5071442;28;19916;-71
2021/07/26 13:04:32;;;;;;;;;;;25.50;99.90;;;;;;5070190;28;19912;-73
2021/07/26 13:06:58;;;;;;;;;;;25.20;99.90;;;;;;5065948;28;20003;-71
2021/07/26 13:09:23;;;;;;;;;;;25.00;99.90;;;;;;5067263;28;19913;-71
2021/07/26 13:11:49;;;;;;;;;;;25.00;99.90;;;;;;5058932;28;19913;-71
2021/07/26 13:14:14;;;;;;;;;;;25.10;99.90;;;;;;5071020;28;19925;-72
2021/07/26 13:16:40;;;;;;;;;;;25.20;99.90;;;;;;5070669;28;20003;-71
2021/07/26 13:19:05;;;;;;;;;;;25.40;99.90;;;;;;5069128;28;19972;-71
2021/07/26 13:21:31;;;;;;;;;;;25.60;99.90;;;;;;5068959;28;19920;-71
2021/07/26 13:23:56;;;;;;;;;;;25.60;99.90;;;;;;5067408;28;20438;-70
2021/07/26 13:26:22;;;;;;;;;;;25.40;99.90;;;;;;5071086;28;19995;-71
2021/07/26 13:28:47;;;;;;;;;;;25.00;99.90;;;;;;5070053;28;19920;-72
2021/07/26 13:31:13;;;;;;;;;;;24.70;99.90;;;;;;5072369;28;19966;-71
2021/07/26 13:33:38;;;;;;;;;;;24.40;99.90;;;;;;5063770;28;19917;-71
2021/07/26 13:36:05;;;;;;;;;;;24.30;99.90;;;;;;5067644;28;19995;-71
2021/07/26 13:38:30;;;;;;;;;;;24.20;99.90;;;;;;5076263;28;19912;-71
2021/07/26 13:40:56;;;;;;;;;;;24.10;99.90;;;;;;5071737;28;20446;-71
2021/07/26 13:43:21;;;;;;;;;;;24.00;99.90;;;;;;5070655;28;19932;-71
2021/07/26 13:45:47;;;;;;;;;;;23.70;99.90;;;;;;5063175;28;19943;-70
2021/07/26 13:48:12;;;;;;;;;;;23.50;99.90;;;;;;5071613;28;19913;-71
2021/07/26 13:50:38;;;;;;;;;;;23.20;99.90;;;;;;5074029;28;19951;-71
2021/07/26 13:53:04;;;;;;;;;;;22.90;99.90;;;;;;5076579;28;19923;-71
2021/07/26 13:55:30;;;;;;;;;;;22.40;99.90;;;;;;5071533;28;19913;-71
2021/07/26 13:57:55;;;;;;;;;;;22.00;99.90;;;;;;5062522;28;19919;-71
2021/07/26 14:00:21;;;;;;;;;;;21.60;99.90;;;;;;5090923;28;19912;-70
2021/07/26 14:02:46;;;;;;;;;;;21.30;99.90;;;;;;5074185;28;19938;-71
2021/07/26 14:05:13;;;;;;;;;;;21.10;99.90;;;;;;5075821;28;19959;-71
2021/07/26 14:07:38;;;;;;;;;;;20.90;99.90;;;;;;5076053;28;19974;-71
2021/07/26 14:10:04;;;;;;;;;;;20.90;99.90;;;;;;5058644;28;20269;-71
2021/07/26 14:12:30;;;;;;;;;;;20.90;99.90;;;;;;5063192;28;19912;-71
2021/07/26 14:14:55;;;;;;;;;;;20.90;99.90;;;;;;5072928;28;20476;-71
2021/07/26 14:17:21;;;;;;;;;;;20.80;99.90;;;;;;5071571;28;19974;-71
2021/07/26 14:19:48;;;;;;;;;;;20.60;99.90;;;;;;5067189;28;19931;-71
2021/07/26 14:22:14;;;;;;;;;;;20.50;99.90;;;;;;5068178;28;19941;-72